Time;durP1;ratioP1;P1;durP2;ratioP2;P2;SDS_P1;SDS_P2;PMS_P1;PMS_P2;Temp;Humidity;BMP_temperature;BMP_pressure;BME280_temperature;BME280_humidity;BME280_pressure;Samples;Min_cycle;Max_cycle;Signal;HPM_P1;HPM_P2
2022/03/13 00:00:50;;;;;;;4.72;3.47;;;17.70;44.00;;;;;;5099223;27;45349;-76
2022/03/13 00:03:18;;;;;;;5.32;3.50;;;17.60;44.00;;;;;;5100185;27;45506;-76
2022/03/13 00:05:48;;;;;;;4.82;3.30;;;17.60;43.90;;;;;;5104474;27;45277;-76
2022/03/13 00:08:22;;;;;;;4.85;3.72;;;17.60;44.10;;;;;;5103378;27;45399;-76
2022/03/13 00:10:56;;;;;;;5.53;3.47;;;17.60;44.10;;;;;;5103966;27;45284;-76
2022/03/13 00:13:24;;;;;;;4.50;3.20;;;17.60;44.00;;;;;;5099017;27;47362;-76
2022/03/13 00:15:52;;;;;;;4.47;3.45;;;17.60;44.00;;;;;;5103931;27;45402;-76
2022/03/13 00:18:19;;;;;;;5.03;3.67;;;17.60;44.00;;;;;;5100643;27;46642;-76
2022/03/13 00:20:46;;;;;;;5.93;4.10;;;17.60;44.00;;;;;;5108055;27;45162;-76
2022/03/13 00:23:15;;;;;;;5.15;3.67;;;17.60;44.00;;;;;;5105290;27;47332;-76
2022/03/13 00:25:42;;;;;;;5.10;3.45;;;17.60;44.00;;;;;;5099643;27;45220;-76
2022/03/13 00:28:11;;;;;;;6.30;3.22;;;17.60;44.00;;;;;;5104357;27;45423;-76
2022/03/13 00:30:39;;;;;;;5.50;3.47;;;17.60;44.10;;;;;;5104121;27;45419;-76
2022/03/13 00:33:06;;;;;;;4.60;3.55;;;17.60;44.30;;;;;;5107517;27;47156;-76
2022/03/13 00:35:33;;;;;;;4.82;3.35;;;17.60;44.20;;;;;;5102545;27;45578;-76
2022/03/13 00:38:00;;;;;;;5.70;3.65;;;17.60;44.20;;;;;;5110592;27;45310;-76
2022/03/13 00:40:27;;;;;;;5.43;3.33;;;17.60;44.20;;;;;;5109276;27;45475;-76
2022/03/13 00:42:53;;;;;;;4.80;3.10;;;17.60;44.10;;;;;;5109991;27;46196;-76
2022/03/13 00:45:22;;;;;;;6.07;3.20;;;17.60;44.20;;;;;;5108202;27;45252;-76
2022/03/13 00:47:49;;;;;;;4.68;3.45;;;17.60;44.10;;;;;;5110655;27;45286;-76
2022/03/13 00:50:16;;;;;;;4.35;3.08;;;17.60;45.30;;;;;;5110267;27;45214;-76
2022/03/13 00:52:44;;;;;;;5.57;3.33;;;17.60;44.00;;;;;;5111019;27;45542;-76
2022/03/13 00:55:11;;;;;;;5.25;3.50;;;17.50;44.00;;;;;;5106980;27;45585;-76
2022/03/13 00:57:38;;;;;;;4.93;3.40;;;17.50;43.90;;;;;;5110723;27;45381;-76
2022/03/13 01:00:06;;;;;;;5.68;3.78;;;17.50;43.80;;;;;;5101541;27;45318;-76
2022/03/13 01:02:34;;;;;;;4.20;3.10;;;17.50;43.70;;;;;;5107711;27;47460;-76
2022/03/13 01:05:01;;;;;;;4.93;3.30;;;17.50;43.80;;;;;;5108395;27;45418;-76
2022/03/13 01:07:28;;;;;;;4.85;3.30;;;17.50;43.80;;;;;;5107383;27;45356;-76
2022/03/13 01:09:55;;;;;;;4.38;3.25;;;17.50;43.80;;;;;;5102666;27;45371;-76
2022/03/13 01:12:21;;;;;;;4.38;3.33;;;17.50;43.80;;;;;;5105138;27;46540;-76
2022/03/13 01:14:48;;;;;;;5.00;3.40;;;17.50;43.80;;;;;;5106557;27;45462;-76
2022/03/13 01:17:19;;;;;;;4.32;2.88;;;17.60;44.00;;;;;;5107332;27;45396;-77
2022/03/13 01:19:47;;;;;;;3.92;3.03;;;17.60;43.90;;;;;;5109539;27;45181;-76
2022/03/13 01:22:14;;;;;;;5.10;3.47;;;17.60;43.90;;;;;;5110472;27;45581;-76
2022/03/13 01:24:44;;;;;;;4.93;3.35;;;17.60;44.00;;;;;;5108987;27;45638;-77
2022/03/13 01:27:12;;;;;;;4.32;3.33;;;17.60;44.00;;;;;;5104867;27;45309;-76
2022/03/13 01:29:40;;;;;;;5.78;3.15;;;17.60;43.80;;;;;;5107916;27;45293;-76
2022/03/13 01:32:10;;;;;;;4.07;2.90;;;17.60;43.60;;;;;;5110025;27;45795;-76
2022/03/13 01:34:43;;;;;;;4.45;2.95;;;17.70;43.90;;;;;;5109877;27;45272;-76
2022/03/13 01:37:29;;;;;;;3.75;2.78;;;17.70;43.80;;;;;;5110789;27;45238;-76
2022/03/13 01:39:56;;;;;;;4.00;3.13;;;17.60;43.70;;;;;;5106530;27;45613;-76
2022/03/13 01:42:24;;;;;;;4.07;2.88;;;17.60;43.50;;;;;;5107628;27;47010;-77
2022/03/13 01:44:51;;;;;;;5.20;3.63;;;17.60;43.30;;;;;;5107685;27;45138;-76
2022/03/13 01:47:18;;;;;;;5.15;3.53;;;17.60;43.20;;;;;;5107845;27;45258;-76
2022/03/13 01:49:47;;;;;;;4.78;3.33;;;17.60;43.00;;;;;;5107511;27;45558;-76
2022/03/13 01:52:16;;;;;;;4.03;3.08;;;17.60;43.10;;;;;;5108768;27;46670;-76
2022/03/13 01:54:45;;;;;;;4.30;3.15;;;17.60;43.00;;;;;;5109670;27;45222;-76
2022/03/13 01:57:17;;;;;;;5.53;3.72;;;17.60;43.00;;;;;;5109698;27;45485;-76
2022/03/13 01:59:44;;;;;;;3.85;2.75;;;17.60;42.80;;;;;;5100978;27;45592;-76
2022/03/13 02:02:12;;;;;;;4.10;2.92;;;17.60;42.80;;;;;;5106430;27;46983;-76
2022/03/13 02:04:39;;;;;;;4.43;3.30;;;17.60;42.60;;;;;;5109971;27;45591;-76
2022/03/13 02:07:06;;;;;;;4.45;3.40;;;17.60;42.70;;;;;;5107818;27;45195;-76
2022/03/13 02:09:34;;;;;;;4.45;3.40;;;17.60;42.70;;;;;;5107310;27;45297;-76
2022/03/13 02:12:03;;;;;;;4.07;2.88;;;17.60;42.60;;;;;;5109670;27;45265;-76
2022/03/13 02:14:29;;;;;;;4.35;3.10;;;17.60;42.60;;;;;;5109238;27;45258;-76
2022/03/13 02:16:56;;;;;;;5.07;3.03;;;17.60;42.70;;;;;;5108426;27;45226;-76
2022/03/13 02:19:23;;;;;;;3.83;2.75;;;17.60;43.00;;;;;;5108097;27;45482;-76
2022/03/13 02:21:52;;;;;;;3.45;2.25;;;17.60;42.60;;;;;;5109186;27;45244;-76
2022/03/13 02:24:24;;;;;;;4.57;3.15;;;17.60;42.70;;;;;;5108435;27;45238;-76
2022/03/13 02:27:02;;;;;;;4.72;2.85;;;17.60;42.40;;;;;;5107863;27;45343;-76
2022/03/13 02:29:30;;;;;;;4.72;2.97;;;17.70;42.80;;;;;;5105761;27;45165;-76
2022/03/13 02:31:58;;;;;;;4.13;2.88;;;17.70;42.70;;;;;;5108753;27;45578;-76
2022/03/13 02:34:25;;;;;;;4.93;3.38;;;17.60;42.30;;;;;;5107191;27;45274;-76
2022/03/13 02:37:01;;;;;;;4.68;3.13;;;17.60;42.20;;;;;;5107168;27;45337;-76
2022/03/13 02:39:36;;;;;;;4.35;2.88;;;17.60;41.90;;;;;;5106167;27;45184;-76
2022/03/13 02:42:04;;;;;;;4.53;3.17;;;17.60;41.80;;;;;;5103869;27;45323;-76
2022/03/13 02:44:31;;;;;;;6.53;2.97;;;17.60;41.80;;;;;;5109169;27;45275;-76
2022/03/13 02:47:01;;;;;;;4.15;3.03;;;17.60;41.60;;;;;;5106729;27;45353;-76
2022/03/13 02:49:30;;;;;;;4.13;3.00;;;17.60;41.60;;;;;;5105880;27;45803;-76
2022/03/13 02:52:01;;;;;;;4.30;3.22;;;17.60;41.50;;;;;;5108489;27;45236;-76
2022/03/13 02:54:30;;;;;;;3.97;3.17;;;17.60;41.70;;;;;;5107552;27;45198;-76
2022/03/13 02:56:58;;;;;;;3.80;2.88;;;17.60;41.60;;;;;;5107756;27;45219;-76
2022/03/13 02:59:25;;;;;;;3.72;2.92;;;17.60;41.60;;;;;;5105035;27;45229;-76
2022/03/13 03:01:52;;;;;;;4.65;2.92;;;17.60;41.20;;;;;;5107821;27;47929;-76
2022/03/13 03:04:23;;;;;;;4.70;3.10;;;17.60;41.30;;;;;;5107494;27;45293;-76
2022/03/13 03:06:59;;;;;;;4.22;3.17;;;17.60;41.20;;;;;;5107921;27;45292;-76
2022/03/13 03:09:28;;;;;;;4.30;2.92;;;17.60;41.80;;;;;;5102467;27;45280;-76
2022/03/13 03:11:58;;;;;;;4.05;2.83;;;17.60;41.70;;;;;;5104188;27;45259;-76
2022/03/13 03:14:25;;;;;;;4.00;3.00;;;17.60;41.80;;;;;;5098689;27;45189;-76
2022/03/13 03:16:54;;;;;;;4.78;2.80;;;17.60;41.80;;;;;;5108279;27;45168;-76
2022/03/13 03:19:21;;;;;;;4.55;2.75;;;17.60;41.70;;;;;;5106055;27;45532;-76
2022/03/13 03:21:48;;;;;;;3.25;2.55;;;17.60;41.60;;;;;;5108191;27;45260;-76
2022/03/13 03:24:18;;;;;;;4.07;2.85;;;17.60;41.50;;;;;;5107290;27;45301;-76
2022/03/13 03:26:45;;;;;;;3.85;2.60;;;17.60;41.40;;;;;;5108398;27;45268;-76
2022/03/13 03:29:14;;;;;;;4.53;2.92;;;17.60;41.40;;;;;;5100861;27;47221;-76
2022/03/13 03:31:42;;;;;;;4.57;2.88;;;17.60;41.20;;;;;;5107918;27;47110;-76
2022/03/13 03:34:14;;;;;;;3.50;2.72;;;17.60;41.00;;;;;;5107414;27;45183;-76
2022/03/13 03:36:46;;;;;;;3.70;2.72;;;17.60;40.80;;;;;;5106711;27;45300;-76
2022/03/13 03:39:14;;;;;;;6.07;3.30;;;17.60;42.00;;;;;;5105887;27;45443;-76
2022/03/13 03:41:45;;;;;;;4.78;3.10;;;17.60;40.50;;;;;;5108281;27;45211;-76
2022/03/13 03:44:14;;;;;;;3.65;2.53;;;17.60;40.30;;;;;;5106053;27;45315;-76
2022/03/13 03:46:43;;;;;;;3.35;2.80;;;17.60;40.40;;;;;;5107479;27;45390;-76
2022/03/13 03:49:10;;;;;;;3.92;2.80;;;17.60;40.60;;;;;;5104958;27;45878;-76
2022/03/13 03:51:37;;;;;;;4.43;2.80;;;17.50;40.40;;;;;;5105899;27;45318;-76
2022/03/13 03:54:05;;;;;;;5.55;3.15;;;17.60;40.10;;;;;;5107671;27;45194;-76
2022/03/13 03:56:33;;;;;;;4.43;3.10;;;17.60;40.20;;;;;;5107527;27;45362;-76
2022/03/13 03:59:00;;;;;;;4.10;3.08;;;17.60;40.00;;;;;;5105881;27;45275;-76
2022/03/13 04:01:29;;;;;;;3.60;2.80;;;17.50;39.70;;;;;;5102770;27;46205;-76
2022/03/13 04:03:56;;;;;;;3.95;2.80;;;17.60;40.50;;;;;;5107792;27;45285;-76
2022/03/13 04:06:23;;;;;;;4.20;2.83;;;17.60;40.90;;;;;;5105771;27;45317;-76
2022/03/13 04:08:49;;;;;;;3.60;2.70;;;17.60;40.80;;;;;;5105495;27;45538;-76
2022/03/13 04:11:16;;;;;;;3.50;2.53;;;17.60;40.70;;;;;;5099076;27;48306;-76
2022/03/13 04:13:44;;;;;;;4.72;2.92;;;17.60;40.70;;;;;;5111016;27;45253;-76
2022/03/13 04:16:11;;;;;;;3.35;2.60;;;17.60;40.70;;;;;;5108016;27;45267;-76
2022/03/13 04:18:39;;;;;;;3.85;2.60;;;17.60;40.60;;;;;;5110019;27;45512;-76
2022/03/13 04:21:06;;;;;;;3.92;2.70;;;17.60;40.50;;;;;;5099768;27;46187;-76
2022/03/13 04:23:35;;;;;;;4.03;2.80;;;17.60;40.00;;;;;;5115477;27;45170;-76
2022/03/13 04:26:02;;;;;;;4.45;2.88;;;17.60;40.00;;;;;;5111051;27;45317;-76
2022/03/13 04:28:30;;;;;;;5.82;2.67;;;17.60;39.80;;;;;;5108183;27;45540;-76
2022/03/13 04:30:59;;;;;;;4.32;2.70;;;17.60;39.60;;;;;;5108145;27;47906;-76
2022/03/13 04:33:26;;;;;;;4.20;2.97;;;17.60;39.20;;;;;;5110647;27;45355;-76
2022/03/13 04:35:56;;;;;;;5.43;3.35;;;17.60;39.40;;;;;;5106615;27;45236;-76
2022/03/13 04:38:24;;;;;;;4.80;3.10;;;17.60;39.30;;;;;;5109011;27;45480;-76
2022/03/13 04:40:52;;;;;;;4.78;2.78;;;17.60;39.30;;;;;;5110412;27;47920;-76
2022/03/13 04:43:19;;;;;;;3.78;2.97;;;17.60;39.60;;;;;;5109572;27;45156;-76
2022/03/13 04:45:47;;;;;;;4.15;2.90;;;17.60;39.40;;;;;;5110158;27;45348;-76
2022/03/13 04:48:14;;;;;;;4.15;3.00;;;17.60;39.20;;;;;;5108524;27;45434;-75
2022/03/13 04:50:41;;;;;;;4.00;2.70;;;17.60;39.30;;;;;;5108571;27;47146;-76
2022/03/13 04:53:09;;;;;;;3.97;2.75;;;17.60;39.60;;;;;;5110548;27;45087;-76
2022/03/13 04:55:36;;;;;;;3.70;2.80;;;17.60;39.40;;;;;;5109993;27;45273;-76
2022/03/13 04:58:03;;;;;;;3.42;2.45;;;17.60;39.90;;;;;;5110139;27;45289;-76
2022/03/13 05:00:30;;;;;;;3.33;2.38;;;17.60;39.80;;;;;;5107206;27;45727;-76
2022/03/13 05:02:56;;;;;;;2.90;2.40;;;17.60;39.20;;;;;;5108829;27;45282;-76
2022/03/13 05:05:23;;;;;;;4.50;3.03;;;17.60;39.70;;;;;;5109368;27;45145;-76
2022/03/13 05:07:50;;;;;;;3.42;2.58;;;17.60;39.90;;;;;;5106315;27;45362;-76
2022/03/13 05:10:19;;;;;;;3.30;2.50;;;17.60;39.60;;;;;;5109417;27;46428;-76
2022/03/13 05:12:47;;;;;;;4.28;2.47;;;17.60;39.90;;;;;;5108425;27;45297;-76
2022/03/13 05:15:13;;;;;;;3.53;2.47;;;17.60;39.90;;;;;;5097110;27;45715;-76
2022/03/13 05:17:40;;;;;;;4.38;2.88;;;17.60;39.30;;;;;;5109895;27;45330;-76
2022/03/13 05:20:10;;;;;;;3.20;2.42;;;17.60;39.20;;;;;;5109456;27;45262;-76
2022/03/13 05:22:37;;;;;;;4.45;2.58;;;17.60;39.10;;;;;;5109885;27;45389;-76
2022/03/13 05:25:05;;;;;;;3.42;2.20;;;17.60;38.50;;;;;;5107549;27;45434;-76
2022/03/13 05:27:33;;;;;;;3.25;2.60;;;17.60;38.80;;;;;;5108510;27;45531;-76
2022/03/13 05:30:00;;;;;;;4.78;3.03;;;17.60;38.00;;;;;;5109015;27;46492;-76
2022/03/13 05:32:27;;;;;;;3.90;2.80;;;17.60;38.00;;;;;;5110425;27;45299;-76
2022/03/13 05:34:56;;;;;;;3.38;2.25;;;17.60;38.00;;;;;;5111074;27;46218;-76
2022/03/13 05:37:24;;;;;;;3.42;2.70;;;17.60;38.10;;;;;;5110379;27;45136;-76
2022/03/13 05:39:52;;;;;;;4.80;3.25;;;17.60;38.00;;;;;;5107176;27;45695;-77
2022/03/13 05:42:20;;;;;;;3.85;3.03;;;17.50;35.70;;;;;;5110474;27;45168;-76
2022/03/13 05:44:48;;;;;;;4.80;2.80;;;17.60;36.40;;;;;;5096610;27;45414;-76
2022/03/13 05:47:16;;;;;;;4.97;2.90;;;17.50;36.70;;;;;;5106390;27;45292;-77
2022/03/13 05:49:44;;;;;;;4.88;2.90;;;17.60;36.70;;;;;;5108597;27;45467;-77
2022/03/13 05:52:13;;;;;;;6.18;3.28;;;17.50;37.70;;;;;;5106646;27;45130;-77
2022/03/13 05:54:40;;;;;;;5.72;3.00;;;17.60;37.60;;;;;;5109666;27;45168;-76
2022/03/13 05:57:10;;;;;;;3.20;2.25;;;17.60;38.00;;;;;;5105091;27;45268;-76
2022/03/13 05:59:37;;;;;;;3.92;2.58;;;17.60;38.30;;;;;;5108859;27;45207;-76
2022/03/13 06:02:06;;;;;;;3.85;2.65;;;17.60;38.50;;;;;;5108615;27;45313;-75
2022/03/13 06:04:34;;;;;;;3.80;2.60;;;17.60;38.00;;;;;;5106926;27;45268;-76
2022/03/13 06:07:01;;;;;;;4.85;2.80;;;17.60;39.10;;;;;;5108480;27;45508;-76
2022/03/13 06:09:28;;;;;;;3.95;2.85;;;17.60;38.30;;;;;;5106211;27;46369;-76
2022/03/13 06:11:55;;;;;;;3.53;2.33;;;17.50;39.10;;;;;;5109708;27;45274;-76
2022/03/13 06:14:23;;;;;;;3.50;2.10;;;17.50;39.40;;;;;;5108815;27;45258;-76
2022/03/13 06:16:50;;;;;;;3.53;2.15;;;17.50;39.60;;;;;;5106281;27;45253;-75
2022/03/13 06:19:18;;;;;;;4.07;2.40;;;17.50;39.50;;;;;;5105920;27;46267;-76
2022/03/13 06:21:47;;;;;;;3.38;2.45;;;17.50;38.60;;;;;;5109241;27;45270;-76
2022/03/13 06:24:14;;;;;;;3.60;2.42;;;17.50;40.10;;;;;;5100878;27;45320;-76
2022/03/13 06:26:41;;;;;;;4.18;2.50;;;17.50;40.00;;;;;;5108259;27;45587;-77
2022/03/13 06:29:07;;;;;;;6.55;2.50;;;17.50;39.80;;;;;;5105376;27;45341;-76
2022/03/13 06:31:34;;;;;;;3.45;2.38;;;17.50;40.20;;;;;;5106067;27;45317;-76
2022/03/13 06:34:01;;;;;;;2.90;2.10;;;17.50;39.50;;;;;;5108801;27;45254;-76
2022/03/13 06:36:29;;;;;;;3.85;2.45;;;17.50;38.30;;;;;;5108607;27;45391;-76
2022/03/13 06:38:56;;;;;;;3.45;2.60;;;17.50;38.70;;;;;;5106251;27;46247;-76
2022/03/13 06:41:23;;;;;;;3.08;2.42;;;17.50;38.80;;;;;;5109632;27;45383;-76
2022/03/13 06:43:50;;;;;;;3.25;2.30;;;17.50;39.20;;;;;;5113063;27;45509;-76
2022/03/13 06:46:17;;;;;;;3.28;2.33;;;17.50;39.20;;;;;;5108556;27;45450;-76
2022/03/13 06:48:44;;;;;;;3.47;2.47;;;17.50;38.50;;;;;;5104719;27;47040;-76
2022/03/13 06:51:12;;;;;;;4.07;2.40;;;17.50;38.60;;;;;;5108754;27;45365;-76
2022/03/13 06:53:40;;;;;;;4.32;2.72;;;17.60;38.70;;;;;;5108512;27;45166;-76
2022/03/13 06:56:07;;;;;;;3.53;2.50;;;17.60;38.80;;;;;;5107728;27;45246;-76
2022/03/13 06:58:34;;;;;;;3.25;2.03;;;17.60;38.70;;;;;;5106007;27;47413;-76
2022/03/13 07:01:01;;;;;;;2.83;2.25;;;17.60;38.80;;;;;;5098188;27;45531;-76
2022/03/13 07:03:28;;;;;;;3.95;2.70;;;17.60;38.40;;;;;;5108429;27;45192;-76
2022/03/13 07:05:54;;;;;;;4.25;2.60;;;17.60;38.50;;;;;;5108465;27;45288;-76
2022/03/13 07:08:21;;;;;;;3.13;2.10;;;17.60;38.70;;;;;;5105653;27;46303;-76
2022/03/13 07:10:50;;;;;;;3.90;2.33;;;17.60;38.40;;;;;;5106873;27;45305;-76
2022/03/13 07:13:18;;;;;;;4.05;2.60;;;17.60;38.20;;;;;;5106683;27;45205;-76
2022/03/13 07:15:45;;;;;;;4.45;2.58;;;17.60;38.00;;;;;;5106923;27;45190;-76
2022/03/13 07:18:12;;;;;;;3.17;2.60;;;17.50;37.60;;;;;;5105206;27;47122;-76
2022/03/13 07:20:39;;;;;;;3.65;2.20;;;17.60;37.70;;;;;;5106653;27;45600;-74
2022/03/13 07:23:06;;;;;;;3.58;2.17;;;17.50;37.90;;;;;;5108175;27;45220;-76
2022/03/13 07:25:33;;;;;;;3.63;2.38;;;17.50;38.20;;;;;;5107333;27;45342;-76
2022/03/13 07:28:01;;;;;;;4.55;2.67;;;17.50;37.90;;;;;;5107142;27;45243;-76
2022/03/13 07:30:27;;;;;;;4.25;2.67;;;17.50;37.90;;;;;;5105456;27;45177;-76
2022/03/13 07:32:54;;;;;;;4.38;2.53;;;17.50;37.90;;;;;;5105244;27;45329;-76
2022/03/13 07:35:21;;;;;;;3.88;2.70;;;17.50;37.90;;;;;;5104563;27;45702;-76
2022/03/13 07:37:48;;;;;;;3.85;2.40;;;17.50;37.90;;;;;;5107729;27;46181;-76
2022/03/13 07:40:15;;;;;;;5.40;2.60;;;17.60;38.40;;;;;;5106821;27;45501;-76
2022/03/13 07:42:42;;;;;;;3.53;2.47;;;17.60;38.00;;;;;;5107467;27;45227;-76
2022/03/13 07:45:11;;;;;;;3.60;2.50;;;17.50;37.90;;;;;;5105617;27;45202;-75
2022/03/13 07:47:38;;;;;;;3.75;2.65;;;17.60;38.10;;;;;;5097297;27;45512;-76
2022/03/13 07:50:06;;;;;;;3.05;2.25;;;17.60;38.20;;;;;;5105583;27;45384;-76
2022/03/13 07:52:33;;;;;;;3.83;2.53;;;17.60;38.10;;;;;;5107728;27;45392;-76
2022/03/13 07:55:00;;;;;;;3.28;2.28;;;17.60;38.10;;;;;;5108218;27;45423;-76
2022/03/13 07:57:28;;;;;;;4.07;2.50;;;17.60;38.50;;;;;;5105784;27;46220;-76
2022/03/13 07:59:55;;;;;;;2.90;2.28;;;17.50;38.20;;;;;;5104295;27;45343;-76
2022/03/13 08:02:23;;;;;;;3.72;2.40;;;17.50;38.10;;;;;;5105431;27;45207;-77
2022/03/13 08:04:52;;;;;;;96.85;7.38;;;17.50;38.20;;;;;;5103162;27;47164;-76
2022/03/13 08:07:18;;;;;;;30.10;4.70;;;17.50;38.40;;;;;;5106836;27;45996;-77
2022/03/13 08:09:45;;;;;;;26.05;5.25;;;17.60;39.40;;;;;;5106027;27;45280;-76
2022/03/13 08:12:12;;;;;;;13.85;3.30;;;17.60;39.30;;;;;;5104235;27;45344;-76
2022/03/13 08:14:39;;;;;;;15.13;3.05;;;17.60;39.40;;;;;;5107355;27;45334;-77
2022/03/13 08:17:06;;;;;;;13.77;2.83;;;17.50;39.20;;;;;;5105465;27;46245;-76
2022/03/13 08:19:34;;;;;;;11.90;2.95;;;17.50;39.50;;;;;;5104629;27;45159;-76
2022/03/13 08:22:01;;;;;;;7.75;3.17;;;17.50;39.60;;;;;;5107486;27;45205;-76
2022/03/13 08:24:28;;;;;;;14.93;3.22;;;17.40;39.50;;;;;;5105207;27;45302;-76
2022/03/13 08:26:55;;;;;;;8.90;3.35;;;17.50;39.00;;;;;;5104315;27;45478;-76
2022/03/13 08:29:22;;;;;;;16.60;3.25;;;17.50;39.00;;;;;;5105086;27;45310;-77
2022/03/13 08:31:48;;;;;;;10.30;2.90;;;17.40;38.90;;;;;;5103243;27;45361;-77
2022/03/13 08:34:16;;;;;;;12.35;3.05;;;17.50;39.10;;;;;;5103409;27;45349;-77
2022/03/13 08:36:46;;;;;;;18.08;3.40;;;17.50;38.90;;;;;;5101606;27;45529;-77
2022/03/13 08:39:14;;;;;;;4.72;2.50;;;17.50;38.80;;;;;;5096241;27;45542;-76
2022/03/13 08:41:41;;;;;;;7.97;2.58;;;17.50;38.40;;;;;;5103894;27;45525;-76
2022/03/13 08:44:08;;;;;;;6.45;2.50;;;17.60;38.50;;;;;;5103922;27;45670;-76
2022/03/13 08:46:35;;;;;;;5.60;2.65;;;17.60;38.40;;;;;;5105405;27;47132;-76
2022/03/13 08:49:02;;;;;;;6.50;2.42;;;17.60;38.20;;;;;;5103114;27;45792;-76
2022/03/13 08:51:29;;;;;;;4.53;2.55;;;17.60;38.40;;;;;;5103362;27;45324;-76
2022/03/13 08:53:58;;;;;;;4.55;2.58;;;17.60;38.40;;;;;;5105485;27;45346;-77
2022/03/13 08:56:25;;;;;;;4.78;2.20;;;17.60;38.00;;;;;;5107827;27;45362;-77
2022/03/13 08:58:53;;;;;;;6.32;2.50;;;17.60;38.40;;;;;;5107067;27;45224;-76
2022/03/13 09:01:21;;;;;;;5.05;2.60;;;17.50;37.90;;;;;;5108675;27;45337;-76
2022/03/13 09:03:48;;;;;;;3.55;2.40;;;17.50;38.40;;;;;;5109692;27;45543;-76
2022/03/13 09:06:15;;;;;;;4.97;2.67;;;17.50;38.40;;;;;;5108072;27;46308;-77
2022/03/13 09:08:42;;;;;;;4.38;2.60;;;17.50;38.50;;;;;;5108428;27;45498;-76
2022/03/13 09:11:11;;;;;;;5.20;2.60;;;17.50;38.40;;;;;;5108890;27;45235;-77
2022/03/13 09:13:38;;;;;;;6.82;3.08;;;17.40;38.50;;;;;;5107334;27;45193;-77
2022/03/13 09:16:05;;;;;;;4.75;2.70;;;17.50;38.90;;;;;;5107273;27;46174;-76
2022/03/13 09:18:32;;;;;;;6.25;2.80;;;17.50;38.80;;;;;;5108570;27;45439;-76
2022/03/13 09:21:00;;;;;;;5.30;2.55;;;17.50;38.80;;;;;;5109030;27;45403;-77
2022/03/13 09:23:27;;;;;;;5.75;2.67;;;17.50;38.80;;;;;;5109612;27;45179;-75
2022/03/13 09:25:55;;;;;;;5.18;2.60;;;17.50;38.60;;;;;;5110210;27;46613;-75
2022/03/13 09:28:24;;;;;;;5.20;2.70;;;17.50;38.60;;;;;;5107062;27;45355;-77
2022/03/13 09:30:51;;;;;;;4.13;2.45;;;17.50;38.60;;;;;;5104831;27;45666;-76
2022/03/13 09:33:17;;;;;;;6.75;2.47;;;17.50;39.10;;;;;;5109543;27;45564;-76
2022/03/13 09:35:44;;;;;;;4.70;2.28;;;17.50;39.30;;;;;;5105097;27;45373;-77
2022/03/13 09:38:11;;;;;;;9.90;2.58;;;17.50;39.40;;;;;;5107871;27;45435;-76
2022/03/13 09:40:38;;;;;;;5.32;2.53;;;17.50;40.00;;;;;;5108839;27;45570;-76
2022/03/13 09:43:05;;;;;;;4.13;2.50;;;17.50;39.90;;;;;;5106364;27;45214;-76
2022/03/13 09:45:33;;;;;;;6.10;2.67;;;17.50;39.80;;;;;;5102490;27;46362;-78
2022/03/13 09:48:02;;;;;;;5.82;2.38;;;17.50;40.50;;;;;;5107701;27;45644;-76
2022/03/13 09:50:30;;;;;;;7.82;2.78;;;17.60;40.80;;;;;;5102795;27;45412;-76
2022/03/13 09:52:57;;;;;;;3.92;2.28;;;17.60;40.60;;;;;;5108925;27;45448;-76
2022/03/13 09:55:24;;;;;;;4.50;2.30;;;17.60;39.60;;;;;;5109802;27;46550;-76
2022/03/13 09:57:52;;;;;;;7.10;2.60;;;17.60;40.00;;;;;;5098028;27;45560;-76
2022/03/13 10:00:21;;;;;;;4.90;2.50;;;17.60;40.00;;;;;;5103893;27;45240;-76
2022/03/13 10:02:53;;;;;;;7.88;2.70;;;17.50;39.80;;;;;;5107854;27;45575;-76
2022/03/13 10:05:21;;;;;;;7.47;2.70;;;17.50;40.20;;;;;;5106269;27;46216;-76
2022/03/13 10:07:53;;;;;;;4.07;2.45;;;17.50;39.90;;;;;;5106190;27;45259;-76
2022/03/13 10:10:21;;;;;;;5.80;2.60;;;17.50;39.90;;;;;;5111455;27;45250;-76
2022/03/13 10:12:48;;;;;;;5.20;2.40;;;17.50;39.60;;;;;;5118147;27;45421;-76
2022/03/13 10:15:15;;;;;;;5.47;2.53;;;17.50;39.70;;;;;;5108738;27;46192;-76
2022/03/13 10:17:43;;;;;;;3.60;2.30;;;17.60;39.70;;;;;;5109844;27;45470;-76
2022/03/13 10:20:21;;;;;;;3.58;2.42;;;17.60;39.80;;;;;;5107110;27;45670;-76
2022/03/13 10:22:50;;;;;;;7.13;2.70;;;17.60;39.70;;;;;;5110269;27;45389;-76
2022/03/13 10:25:29;;;;;;;3.45;2.33;;;17.60;39.50;;;;;;5108466;27;47420;-76
2022/03/13 10:28:00;;;;;;;5.68;2.38;;;17.60;39.60;;;;;;5109725;27;45110;-76
2022/03/13 10:30:27;;;;;;;3.78;2.20;;;17.70;39.60;;;;;;5108383;27;45455;-76
2022/03/13 10:32:57;;;;;;;4.43;2.35;;;17.70;39.40;;;;;;5109645;27;45190;-76
2022/03/13 10:35:25;;;;;;;4.28;2.55;;;17.70;39.20;;;;;;5104188;27;45277;-76
2022/03/13 10:37:52;;;;;;;5.40;2.75;;;17.70;39.10;;;;;;5104316;27;45490;-76
2022/03/13 10:40:22;;;;;;;4.95;2.78;;;17.80;39.20;;;;;;5099133;27;45280;-78
2022/03/13 10:42:50;;;;;;;5.70;2.45;;;17.70;39.70;;;;;;5094801;27;45257;-76
2022/03/13 10:45:36;;;;;;;10.43;2.47;;;17.70;41.70;;;;;;5101531;27;46310;-76
2022/03/13 10:48:29;;;;;;;25.65;3.25;;;17.70;41.50;;;;;;5096684;27;45690;-75
2022/03/13 10:50:58;;;;;;;15.13;2.53;;;17.60;43.00;;;;;;5098814;27;45748;-76
2022/03/13 10:53:26;;;;;;;15.95;2.65;;;17.60;42.90;;;;;;5102404;27;45423;-75
2022/03/13 10:56:09;;;;;;;7.45;2.90;;;17.60;43.70;;;;;;5107292;27;45662;-75
2022/03/13 10:58:37;;;;;;;4.60;2.50;;;17.50;44.50;;;;;;5106614;27;45581;-75
2022/03/13 11:01:07;;;;;;;3.78;2.40;;;17.50;43.00;;;;;;5104112;27;45899;-76
2022/03/13 11:03:36;;;;;;;7.47;3.05;;;17.50;43.30;;;;;;5102168;27;45790;-75
2022/03/13 11:06:05;;;;;;;8.82;4.03;;;17.50;44.10;;;;;;5103318;27;45384;-74
2022/03/13 11:08:32;;;;;;;4.53;2.85;;;17.50;43.10;;;;;;5095507;27;45337;-76
2022/03/13 11:11:00;;;;;;;4.40;3.08;;;17.60;43.70;;;;;;5107455;27;45233;-73
2022/03/13 11:13:27;;;;;;;5.07;2.65;;;17.60;43.10;;;;;;5107871;27;45363;-74
2022/03/13 11:15:58;;;;;;;4.63;2.90;;;17.60;43.70;;;;;;5104820;27;45592;-74
2022/03/13 11:18:38;;;;;;;4.03;2.90;;;17.60;44.00;;;;;;5102950;27;46336;-74
2022/03/13 11:21:08;;;;;;;6.18;2.70;;;17.60;44.20;;;;;;5109155;27;45284;-74
2022/03/13 11:23:35;;;;;;;4.00;2.53;;;17.60;44.50;;;;;;5107819;27;45535;-74
2022/03/13 11:26:02;;;;;;;4.43;2.42;;;17.60;45.90;;;;;;5106243;27;46403;-74
2022/03/13 11:28:29;;;;;;;7.82;3.05;;;17.60;44.70;;;;;;5106684;27;45343;-74
2022/03/13 11:30:56;;;;;;;4.60;2.70;;;17.60;44.50;;;;;;5107889;27;45225;-74
2022/03/13 11:33:34;;;;;;;4.82;2.72;;;17.70;44.50;;;;;;5104933;27;45462;-74
2022/03/13 11:36:29;;;;;;;4.53;3.00;;;17.70;44.70;;;;;;5106701;27;46525;-74
2022/03/13 11:38:57;;;;;;;6.15;2.92;;;17.70;45.00;;;;;;5103979;27;45374;-74
2022/03/13 11:41:41;;;;;;;4.32;2.70;;;17.70;45.70;;;;;;5101045;27;45358;-74
2022/03/13 11:44:40;;;;;;;3.92;2.50;;;17.70;46.60;;;;;;5099965;27;45318;-76
2022/03/13 11:47:25;;;;;;;5.07;2.72;;;17.70;46.20;;;;;;5103241;27;46947;-76
2022/03/13 11:49:53;;;;;;;3.92;2.80;;;17.70;47.40;;;;;;5104098;27;45314;-76
2022/03/13 11:52:32;;;;;;;4.25;2.55;;;17.70;47.80;;;;;;5105336;27;45331;-75
2022/03/13 11:55:00;;;;;;;4.88;2.70;;;17.70;48.00;;;;;;5106102;27;45369;-75
2022/03/13 11:57:29;;;;;;;6.35;2.95;;;17.60;47.70;;;;;;5104330;27;47185;-75
2022/03/13 12:00:29;;;;;;;3.95;2.72;;;17.60;47.80;;;;;;5104577;27;45446;-75
2022/03/13 12:03:11;;;;;;;3.78;2.60;;;17.70;48.30;;;;;;5103107;27;45426;-75
2022/03/13 12:05:50;;;;;;;3.67;2.65;;;17.70;48.60;;;;;;5097643;27;45238;-76
2022/03/13 12:08:22;;;;;;;4.05;2.42;;;17.70;48.60;;;;;;5102854;27;47365;-76
2022/03/13 12:10:49;;;;;;;5.13;2.80;;;17.70;48.50;;;;;;5107370;27;45401;-75
2022/03/13 12:13:17;;;;;;;3.38;2.22;;;17.70;48.70;;;;;;5106560;27;45384;-75
2022/03/13 12:15:45;;;;;;;4.65;2.88;;;17.70;48.60;;;;;;5104711;27;45235;-75
2022/03/13 12:18:16;;;;;;;4.22;2.75;;;17.70;48.60;;;;;;5106468;27;45478;-76
2022/03/13 12:20:44;;;;;;;4.22;2.97;;;17.70;48.20;;;;;;5107242;27;45276;-76
2022/03/13 12:23:24;;;;;;;4.43;2.78;;;17.80;47.60;;;;;;5106821;27;45264;-76
2022/03/13 12:25:54;;;;;;;5.63;2.97;;;17.80;47.90;;;;;;5102460;27;45366;-76
2022/03/13 12:28:33;;;;;;;4.72;2.60;;;17.80;48.90;;;;;;5105823;27;46539;-76
2022/03/13 12:31:03;;;;;;;2.95;2.28;;;17.70;49.00;;;;;;5105476;27;45554;-76
2022/03/13 12:33:31;;;;;;;3.50;2.20;;;17.70;51.30;;;;;;5112058;27;45403;-75
2022/03/13 12:36:01;;;;;;;6.05;2.35;;;17.70;51.10;;;;;;5106100;27;45309;-75
2022/03/13 12:38:29;;;;;;;3.67;2.35;;;17.70;51.90;;;;;;5109727;27;45992;-76
2022/03/13 12:40:59;;;;;;;3.28;2.00;;;17.70;51.90;;;;;;5109245;27;45128;-76
2022/03/13 12:43:27;;;;;;;3.72;2.45;;;17.70;51.90;;;;;;5111015;27;45297;-76
2022/03/13 12:45:54;;;;;;;3.97;2.03;;;17.60;52.30;;;;;;5108293;27;45755;-76
2022/03/13 12:48:21;;;;;;;3.47;2.33;;;17.60;52.40;;;;;;5104556;27;45284;-76
2022/03/13 12:50:48;;;;;;;3.85;2.33;;;17.60;52.50;;;;;;5109161;27;45318;-77
2022/03/13 12:53:21;;;;;;;3.20;2.03;;;17.60;53.40;;;;;;5106624;27;45353;-76